sensor_id;sensor_type;location;lat;lon;timestamp;temperature;humidity
76936;DHT22;65881;52.438;16.744;2023-05-07T00:00:41;6.20;93.80
76936;DHT22;65881;52.438;16.744;2023-05-07T00:03:07;6.20;94.30
76936;DHT22;65881;52.438;16.744;2023-05-07T00:05:33;6.20;94.10
76936;DHT22;65881;52.438;16.744;2023-05-07T00:07:59;6.30;93.20
76936;DHT22;65881;52.438;16.744;2023-05-07T00:10:25;6.30;93.80
76936;DHT22;65881;52.438;16.744;2023-05-07T00:12:51;6.30;93.70
76936;DHT22;65881;52.438;16.744;2023-05-07T00:15:16;6.20;93.70
76936;DHT22;65881;52.438;16.744;2023-05-07T00:17:42;6.20;93.50
76936;DHT22;65881;52.438;16.744;2023-05-07T00:20:08;6.20;93.70
76936;DHT22;65881;52.438;16.744;2023-05-07T00:22:34;6.20;94.00
76936;DHT22;65881;52.438;16.744;2023-05-07T00:24:59;6.20;93.70
76936;DHT22;65881;52.438;16.744;2023-05-07T00:27:25;6.20;93.20
76936;DHT22;65881;52.438;16.744;2023-05-07T00:29:51;6.20;93.20
76936;DHT22;65881;52.438;16.744;2023-05-07T00:32:17;6.30;92.80
76936;DHT22;65881;52.438;16.744;2023-05-07T00:34:43;6.30;93.00
76936;DHT22;65881;52.438;16.744;2023-05-07T00:37:09;6.30;93.10
76936;DHT22;65881;52.438;16.744;2023-05-07T00:39:35;6.30;93.00
76936;DHT22;65881;52.438;16.744;2023-05-07T00:42:01;6.30;92.90
76936;DHT22;65881;52.438;16.744;2023-05-07T00:44:28;6.20;92.70
76936;DHT22;65881;52.438;16.744;2023-05-07T00:46:54;6.20;92.80
76936;DHT22;65881;52.438;16.744;2023-05-07T00:49:20;6.20;92.90
76936;DHT22;65881;52.438;16.744;2023-05-07T00:51:46;6.20;92.90
76936;DHT22;65881;52.438;16.744;2023-05-07T00:54:13;6.30;93.00
76936;DHT22;65881;52.438;16.744;2023-05-07T00:56:39;6.20;93.20
76936;DHT22;65881;52.438;16.744;2023-05-07T00:59:06;6.20;93.20
76936;DHT22;65881;52.438;16.744;2023-05-07T01:01:32;6.20;93.50
76936;DHT22;65881;52.438;16.744;2023-05-07T01:03:57;6.20;94.00
76936;DHT22;65881;52.438;16.744;2023-05-07T01:06:24;6.20;93.70
76936;DHT22;65881;52.438;16.744;2023-05-07T01:08:51;6.10;93.90
76936;DHT22;65881;52.438;16.744;2023-05-07T01:11:18;6.10;93.70
76936;DHT22;65881;52.438;16.744;2023-05-07T01:13:46;6.10;94.00
76936;DHT22;65881;52.438;16.744;2023-05-07T01:16:12;6.00;93.90
76936;DHT22;65881;52.438;16.744;2023-05-07T01:18:38;6.00;93.90
76936;DHT22;65881;52.438;16.744;2023-05-07T01:21:05;6.00;94.30
76936;DHT22;65881;52.438;16.744;2023-05-07T01:23:31;6.00;94.20
76936;DHT22;65881;52.438;16.744;2023-05-07T01:25:58;6.00;94.20
76936;DHT22;65881;52.438;16.744;2023-05-07T01:28:23;5.90;94.50
76936;DHT22;65881;52.438;16.744;2023-05-07T01:30:54;5.90;94.50
76936;DHT22;65881;52.438;16.744;2023-05-07T01:33:22;5.90;94.60
76936;DHT22;65881;52.438;16.744;2023-05-07T01:35:51;5.90;94.60
76936;DHT22;65881;52.438;16.744;2023-05-07T01:38:18;5.80;94.60
76936;DHT22;65881;52.438;16.744;2023-05-07T01:40:44;5.80;94.70
76936;DHT22;65881;52.438;16.744;2023-05-07T01:43:10;5.80;94.70
76936;DHT22;65881;52.438;16.744;2023-05-07T01:45:38;5.80;94.80
76936;DHT22;65881;52.438;16.744;2023-05-07T01:48:05;5.80;94.60
76936;DHT22;65881;52.438;16.744;2023-05-07T01:50:32;5.80;94.70
76936;DHT22;65881;52.438;16.744;2023-05-07T01:52:57;5.80;94.80
76936;DHT22;65881;52.438;16.744;2023-05-07T01:55:23;5.80;94.90
76936;DHT22;65881;52.438;16.744;2023-05-07T01:57:49;5.80;94.90
76936;DHT22;65881;52.438;16.744;2023-05-07T02:00:15;5.70;94.90
76936;DHT22;65881;52.438;16.744;2023-05-07T02:02:41;5.60;95.00
76936;DHT22;65881;52.438;16.744;2023-05-07T02:05:07;5.60;95.00
76936;DHT22;65881;52.438;16.744;2023-05-07T02:07:32;5.50;95.30
76936;DHT22;65881;52.438;16.744;2023-05-07T02:09:59;5.50;95.40
76936;DHT22;65881;52.438;16.744;2023-05-07T02:12:25;5.50;95.60
76936;DHT22;65881;52.438;16.744;2023-05-07T02:14:50;5.50;95.70
76936;DHT22;65881;52.438;16.744;2023-05-07T02:17:16;5.50;96.00
76936;DHT22;65881;52.438;16.744;2023-05-07T02:19:42;5.50;96.20
76936;DHT22;65881;52.438;16.744;2023-05-07T02:22:09;5.50;96.30
76936;DHT22;65881;52.438;16.744;2023-05-07T02:24:34;5.50;96.30
76936;DHT22;65881;52.438;16.744;2023-05-07T02:27:00;5.50;96.20
76936;DHT22;65881;52.438;16.744;2023-05-07T02:29:26;5.60;96.30
76936;DHT22;65881;52.438;16.744;2023-05-07T02:31:52;5.60;96.00
76936;DHT22;65881;52.438;16.744;2023-05-07T02:34:18;5.60;95.90
76936;DHT22;65881;52.438;16.744;2023-05-07T02:36:44;5.70;95.70
76936;DHT22;65881;52.438;16.744;2023-05-07T02:39:11;5.70;95.90
76936;DHT22;65881;52.438;16.744;2023-05-07T02:41:37;5.70;95.60
76936;DHT22;65881;52.438;16.744;2023-05-07T02:44:03;5.70;95.50
76936;DHT22;65881;52.438;16.744;2023-05-07T02:46:28;5.70;95.10
76936;DHT22;65881;52.438;16.744;2023-05-07T02:48:54;5.70;95.30
76936;DHT22;65881;52.438;16.744;2023-05-07T02:51:21;5.60;95.30
76936;DHT22;65881;52.438;16.744;2023-05-07T02:53:50;5.50;95.50
76936;DHT22;65881;52.438;16.744;2023-05-07T02:56:16;5.50;95.60
76936;DHT22;65881;52.438;16.744;2023-05-07T02:58:41;5.50;95.80
76936;DHT22;65881;52.438;16.744;2023-05-07T03:01:08;5.40;95.80
76936;DHT22;65881;52.438;16.744;2023-05-07T03:03:34;5.30;96.00
76936;DHT22;65881;52.438;16.744;2023-05-07T03:06:00;5.40;96.00
76936;DHT22;65881;52.438;16.744;2023-05-07T03:08:25;5.30;96.10
76936;DHT22;65881;52.438;16.744;2023-05-07T03:10:51;5.50;96.30
76936;DHT22;65881;52.438;16.744;2023-05-07T03:13:17;5.40;96.40
76936;DHT22;65881;52.438;16.744;2023-05-07T03:15:43;5.50;96.10
76936;DHT22;65881;52.438;16.744;2023-05-07T03:18:08;5.50;96.00
76936;DHT22;65881;52.438;16.744;2023-05-07T03:20:34;5.50;96.00
76936;DHT22;65881;52.438;16.744;2023-05-07T03:23:01;5.60;96.00
76936;DHT22;65881;52.438;16.744;2023-05-07T03:25:27;5.60;95.50
76936;DHT22;65881;52.438;16.744;2023-05-07T03:27:53;5.60;95.70
76936;DHT22;65881;52.438;16.744;2023-05-07T03:30:19;5.60;95.50
76936;DHT22;65881;52.438;16.744;2023-05-07T03:32:45;5.60;95.40
76936;DHT22;65881;52.438;16.744;2023-05-07T03:35:11;5.60;95.50
76936;DHT22;65881;52.438;16.744;2023-05-07T03:37:37;5.60;95.10
76936;DHT22;65881;52.438;16.744;2023-05-07T03:40:03;5.60;95.10
76936;DHT22;65881;52.438;16.744;2023-05-07T03:42:29;5.70;95.50
76936;DHT22;65881;52.438;16.744;2023-05-07T03:44:55;5.70;95.30
76936;DHT22;65881;52.438;16.744;2023-05-07T03:47:21;5.60;95.20
76936;DHT22;65881;52.438;16.744;2023-05-07T03:49:47;5.60;95.10
76936;DHT22;65881;52.438;16.744;2023-05-07T03:52:14;5.60;95.20
76936;DHT22;65881;52.438;16.744;2023-05-07T03:54:41;5.60;95.30
76936;DHT22;65881;52.438;16.744;2023-05-07T03:57:06;5.50;95.50
76936;DHT22;65881;52.438;16.744;2023-05-07T03:59:32;5.50;95.60
76936;DHT22;65881;52.438;16.744;2023-05-07T04:01:58;5.50;95.60
76936;DHT22;65881;52.438;16.744;2023-05-07T04:04:24;5.50;95.90
76936;DHT22;65881;52.438;16.744;2023-05-07T04:06:49;5.50;95.80
76936;DHT22;65881;52.438;16.744;2023-05-07T04:09:15;5.50;95.20
76936;DHT22;65881;52.438;16.744;2023-05-07T04:11:41;5.50;95.00
76936;DHT22;65881;52.438;16.744;2023-05-07T04:14:06;5.50;95.00
76936;DHT22;65881;52.438;16.744;2023-05-07T04:16:34;5.50;95.20
76936;DHT22;65881;52.438;16.744;2023-05-07T04:18:59;5.50;95.70
76936;DHT22;65881;52.438;16.744;2023-05-07T04:21:25;5.60;96.10
76936;DHT22;65881;52.438;16.744;2023-05-07T04:23:51;5.60;96.20
76936;DHT22;65881;52.438;16.744;2023-05-07T04:26:17;5.70;95.90
76936;DHT22;65881;52.438;16.744;2023-05-07T04:28:43;5.70;95.80
76936;DHT22;65881;52.438;16.744;2023-05-07T04:31:09;5.80;95.30
76936;DHT22;65881;52.438;16.744;2023-05-07T04:33:35;5.80;94.70
76936;DHT22;65881;52.438;16.744;2023-05-07T04:36:04;5.90;93.60
76936;DHT22;65881;52.438;16.744;2023-05-07T04:38:30;5.90;93.80
76936;DHT22;65881;52.438;16.744;2023-05-07T04:40:58;5.90;93.70
76936;DHT22;65881;52.438;16.744;2023-05-07T04:43:23;5.90;94.00
76936;DHT22;65881;52.438;16.744;2023-05-07T04:45:52;5.90;94.20
76936;DHT22;65881;52.438;16.744;2023-05-07T04:48:17;5.90;93.80
76936;DHT22;65881;52.438;16.744;2023-05-07T04:50:47;5.90;94.30
76936;DHT22;65881;52.438;16.744;2023-05-07T04:53:13;5.90;94.00
76936;DHT22;65881;52.438;16.744;2023-05-07T04:55:39;6.00;94.60
76936;DHT22;65881;52.438;16.744;2023-05-07T04:58:04;6.00;94.10
76936;DHT22;65881;52.438;16.744;2023-05-07T05:00:30;6.10;93.30
76936;DHT22;65881;52.438;16.744;2023-05-07T05:02:56;6.10;93.00
76936;DHT22;65881;52.438;16.744;2023-05-07T05:05:22;6.10;93.40
76936;DHT22;65881;52.438;16.744;2023-05-07T05:07:47;6.10;93.00
76936;DHT22;65881;52.438;16.744;2023-05-07T05:10:13;6.20;92.20
76936;DHT22;65881;52.438;16.744;2023-05-07T05:12:39;6.30;92.50
76936;DHT22;65881;52.438;16.744;2023-05-07T05:15:05;6.50;91.50
76936;DHT22;65881;52.438;16.744;2023-05-07T05:17:31;6.60;92.40
76936;DHT22;65881;52.438;16.744;2023-05-07T05:19:57;6.80;91.80
76936;DHT22;65881;52.438;16.744;2023-05-07T05:22:22;6.90;90.00
76936;DHT22;65881;52.438;16.744;2023-05-07T05:24:48;7.10;89.30
76936;DHT22;65881;52.438;16.744;2023-05-07T05:27:14;7.20;88.70
76936;DHT22;65881;52.438;16.744;2023-05-07T05:29:40;7.20;87.80
76936;DHT22;65881;52.438;16.744;2023-05-07T05:32:05;7.20;88.30
76936;DHT22;65881;52.438;16.744;2023-05-07T05:34:31;7.40;87.20
76936;DHT22;65881;52.438;16.744;2023-05-07T05:36:59;7.40;85.50
76936;DHT22;65881;52.438;16.744;2023-05-07T05:39:25;7.40;86.00
76936;DHT22;65881;52.438;16.744;2023-05-07T05:41:50;7.50;86.90
76936;DHT22;65881;52.438;16.744;2023-05-07T05:44:16;7.50;87.70
76936;DHT22;65881;52.438;16.744;2023-05-07T05:46:42;7.60;82.40
76936;DHT22;65881;52.438;16.744;2023-05-07T05:49:07;7.60;84.20
76936;DHT22;65881;52.438;16.744;2023-05-07T05:51:34;7.60;83.10
76936;DHT22;65881;52.438;16.744;2023-05-07T05:53:59;7.60;82.10
76936;DHT22;65881;52.438;16.744;2023-05-07T05:56:25;7.60;82.60
76936;DHT22;65881;52.438;16.744;2023-05-07T05:58:51;7.60;83.00
76936;DHT22;65881;52.438;16.744;2023-05-07T06:01:17;7.60;84.40
76936;DHT22;65881;52.438;16.744;2023-05-07T06:03:44;7.80;84.00
76936;DHT22;65881;52.438;16.744;2023-05-07T06:06:09;7.80;82.10
76936;DHT22;65881;52.438;16.744;2023-05-07T06:08:35;8.20;81.40
76936;DHT22;65881;52.438;16.744;2023-05-07T06:11:01;8.40;82.80
76936;DHT22;65881;52.438;16.744;2023-05-07T06:13:27;8.40;80.60
76936;DHT22;65881;52.438;16.744;2023-05-07T06:15:53;8.40;81.10
76936;DHT22;65881;52.438;16.744;2023-05-07T06:18:18;8.40;81.30
76936;DHT22;65881;52.438;16.744;2023-05-07T06:20:44;8.60;81.40
76936;DHT22;65881;52.438;16.744;2023-05-07T06:23:10;8.90;76.60
76936;DHT22;65881;52.438;16.744;2023-05-07T06:25:36;9.00;75.60
76936;DHT22;65881;52.438;16.744;2023-05-07T06:28:01;8.90;75.20
76936;DHT22;65881;52.438;16.744;2023-05-07T06:30:27;8.80;78.20
76936;DHT22;65881;52.438;16.744;2023-05-07T06:32:53;8.60;77.40
76936;DHT22;65881;52.438;16.744;2023-05-07T06:35:19;8.60;76.40
76936;DHT22;65881;52.438;16.744;2023-05-07T06:37:44;8.60;78.60
76936;DHT22;65881;52.438;16.744;2023-05-07T06:40:10;8.80;77.10
76936;DHT22;65881;52.438;16.744;2023-05-07T06:42:36;8.90;75.10
76936;DHT22;65881;52.438;16.744;2023-05-07T06:45:03;9.00;76.10
76936;DHT22;65881;52.438;16.744;2023-05-07T06:47:29;9.10;76.30
76936;DHT22;65881;52.438;16.744;2023-05-07T06:49:55;9.00;75.30
76936;DHT22;65881;52.438;16.744;2023-05-07T06:52:20;9.00;73.60
76936;DHT22;65881;52.438;16.744;2023-05-07T06:54:46;9.00;73.80
76936;DHT22;65881;52.438;16.744;2023-05-07T06:57:11;9.10;74.80
76936;DHT22;65881;52.438;16.744;2023-05-07T06:59:37;9.30;74.10
76936;DHT22;65881;52.438;16.744;2023-05-07T07:02:03;9.40;72.80
76936;DHT22;65881;52.438;16.744;2023-05-07T07:04:29;9.50;73.30
76936;DHT22;65881;52.438;16.744;2023-05-07T07:06:56;9.60;72.00
76936;DHT22;65881;52.438;16.744;2023-05-07T07:09:22;9.80;72.20
76936;DHT22;65881;52.438;16.744;2023-05-07T07:11:48;10.00;69.40
76936;DHT22;65881;52.438;16.744;2023-05-07T07:14:13;10.00;68.80
76936;DHT22;65881;52.438;16.744;2023-05-07T07:16:39;10.20;69.80
76936;DHT22;65881;52.438;16.744;2023-05-07T07:19:15;10.40;67.00
76936;DHT22;65881;52.438;16.744;2023-05-07T07:21:41;10.50;67.40
76936;DHT22;65881;52.438;16.744;2023-05-07T07:24:08;10.40;67.20
76936;DHT22;65881;52.438;16.744;2023-05-07T07:26:34;10.40;67.80
76936;DHT22;65881;52.438;16.744;2023-05-07T07:28:59;10.40;66.50
76936;DHT22;65881;52.438;16.744;2023-05-07T07:31:25;10.30;69.20
76936;DHT22;65881;52.438;16.744;2023-05-07T07:33:51;10.40;67.10
76936;DHT22;65881;52.438;16.744;2023-05-07T07:36:17;10.70;70.30
76936;DHT22;65881;52.438;16.744;2023-05-07T07:38:42;11.00;70.30
76936;DHT22;65881;52.438;16.744;2023-05-07T07:41:08;11.10;64.00
76936;DHT22;65881;52.438;16.744;2023-05-07T07:43:34;10.80;65.80
76936;DHT22;65881;52.438;16.744;2023-05-07T07:46:01;10.60;67.70
76936;DHT22;65881;52.438;16.744;2023-05-07T07:48:26;10.70;66.20
76936;DHT22;65881;52.438;16.744;2023-05-07T07:50:52;10.60;67.40
76936;DHT22;65881;52.438;16.744;2023-05-07T07:53:21;10.70;66.70
76936;DHT22;65881;52.438;16.744;2023-05-07T07:55:47;10.90;67.20
76936;DHT22;65881;52.438;16.744;2023-05-07T07:58:12;11.10;66.00
76936;DHT22;65881;52.438;16.744;2023-05-07T08:00:38;10.90;65.50
76936;DHT22;65881;52.438;16.744;2023-05-07T08:03:04;10.70;66.60
76936;DHT22;65881;52.438;16.744;2023-05-07T08:05:30;11.00;65.80
76936;DHT22;65881;52.438;16.744;2023-05-07T08:07:56;11.00;69.60
76936;DHT22;65881;52.438;16.744;2023-05-07T08:10:21;10.90;67.80
76936;DHT22;65881;52.438;16.744;2023-05-07T08:12:48;11.00;66.80
76936;DHT22;65881;52.438;16.744;2023-05-07T08:15:14;11.00;66.00
76936;DHT22;65881;52.438;16.744;2023-05-07T08:17:40;11.00;67.30
76936;DHT22;65881;52.438;16.744;2023-05-07T08:20:06;10.80;66.80
76936;DHT22;65881;52.438;16.744;2023-05-07T08:22:34;10.70;68.70
76936;DHT22;65881;52.438;16.744;2023-05-07T08:24:59;10.90;68.20
76936;DHT22;65881;52.438;16.744;2023-05-07T08:27:25;11.00;65.60
76936;DHT22;65881;52.438;16.744;2023-05-07T08:29:51;11.00;65.60
76936;DHT22;65881;52.438;16.744;2023-05-07T08:32:16;11.00;66.80
76936;DHT22;65881;52.438;16.744;2023-05-07T08:34:42;11.00;66.80
76936;DHT22;65881;52.438;16.744;2023-05-07T08:37:08;11.00;66.90
76936;DHT22;65881;52.438;16.744;2023-05-07T08:39:33;10.90;69.60
76936;DHT22;65881;52.438;16.744;2023-05-07T08:42:00;11.10;69.10
76936;DHT22;65881;52.438;16.744;2023-05-07T08:44:34;11.10;68.60
76936;DHT22;65881;52.438;16.744;2023-05-07T08:47:02;11.30;68.70
76936;DHT22;65881;52.438;16.744;2023-05-07T08:49:28;11.40;68.40
76936;DHT22;65881;52.438;16.744;2023-05-07T08:51:54;11.50;68.50
76936;DHT22;65881;52.438;16.744;2023-05-07T08:54:21;11.60;67.20
76936;DHT22;65881;52.438;16.744;2023-05-07T08:56:47;11.70;63.50
76936;DHT22;65881;52.438;16.744;2023-05-07T08:59:13;11.70;65.70
76936;DHT22;65881;52.438;16.744;2023-05-07T09:01:39;11.90;65.90
76936;DHT22;65881;52.438;16.744;2023-05-07T09:04:05;11.70;63.40
76936;DHT22;65881;52.438;16.744;2023-05-07T09:06:32;11.60;63.70
76936;DHT22;65881;52.438;16.744;2023-05-07T09:09:03;11.30;68.40
76936;DHT22;65881;52.438;16.744;2023-05-07T09:11:30;11.10;68.60
76936;DHT22;65881;52.438;16.744;2023-05-07T09:13:57;11.10;64.80
76936;DHT22;65881;52.438;16.744;2023-05-07T09:16:25;11.10;67.20
76936;DHT22;65881;52.438;16.744;2023-05-07T09:18:52;11.20;66.80
76936;DHT22;65881;52.438;16.744;2023-05-07T09:21:19;11.20;65.50
76936;DHT22;65881;52.438;16.744;2023-05-07T09:23:45;11.10;66.80
76936;DHT22;65881;52.438;16.744;2023-05-07T09:26:13;11.10;66.40
76936;DHT22;65881;52.438;16.744;2023-05-07T09:28:40;11.10;68.50
76936;DHT22;65881;52.438;16.744;2023-05-07T09:31:08;11.40;67.80
76936;DHT22;65881;52.438;16.744;2023-05-07T09:33:33;11.50;67.40
76936;DHT22;65881;52.438;16.744;2023-05-07T09:36:03;11.70;67.70
76936;DHT22;65881;52.438;16.744;2023-05-07T09:38:29;11.70;69.60
76936;DHT22;65881;52.438;16.744;2023-05-07T09:41:09;11.70;68.50
76936;DHT22;65881;52.438;16.744;2023-05-07T09:43:36;11.90;65.70
76936;DHT22;65881;52.438;16.744;2023-05-07T09:46:14;11.70;66.20
76936;DHT22;65881;52.438;16.744;2023-05-07T09:48:48;11.60;65.50
76936;DHT22;65881;52.438;16.744;2023-05-07T09:51:25;11.70;67.80
76936;DHT22;65881;52.438;16.744;2023-05-07T09:53:57;11.90;65.20
76936;DHT22;65881;52.438;16.744;2023-05-07T09:56:25;11.90;64.50
76936;DHT22;65881;52.438;16.744;2023-05-07T09:58:54;11.90;66.10
76936;DHT22;65881;52.438;16.744;2023-05-07T10:01:20;12.10;63.40
76936;DHT22;65881;52.438;16.744;2023-05-07T10:03:48;12.30;65.20
76936;DHT22;65881;52.438;16.744;2023-05-07T10:06:16;12.60;65.70
76936;DHT22;65881;52.438;16.744;2023-05-07T10:08:43;12.80;62.70
76936;DHT22;65881;52.438;16.744;2023-05-07T10:11:09;13.00;59.90
76936;DHT22;65881;52.438;16.744;2023-05-07T10:13:35;12.70;64.40
76936;DHT22;65881;52.438;16.744;2023-05-07T10:16:05;12.50;62.40
76936;DHT22;65881;52.438;16.744;2023-05-07T10:18:32;12.70;59.70
76936;DHT22;65881;52.438;16.744;2023-05-07T10:21:09;12.80;64.20
76936;DHT22;65881;52.438;16.744;2023-05-07T10:23:35;12.90;62.70
76936;DHT22;65881;52.438;16.744;2023-05-07T10:26:04;12.90;62.30
76936;DHT22;65881;52.438;16.744;2023-05-07T10:28:33;12.70;62.90
76936;DHT22;65881;52.438;16.744;2023-05-07T10:33:36;12.10;61.60
76936;DHT22;65881;52.438;16.744;2023-05-07T10:36:03;12.00;63.40
76936;DHT22;65881;52.438;16.744;2023-05-07T10:38:30;12.10;64.10
76936;DHT22;65881;52.438;16.744;2023-05-07T10:40:56;11.90;61.60
76936;DHT22;65881;52.438;16.744;2023-05-07T10:43:22;11.90;63.30
76936;DHT22;65881;52.438;16.744;2023-05-07T10:51:34;12.10;62.90
76936;DHT22;65881;52.438;16.744;2023-05-07T10:56:35;11.90;60.90
76936;DHT22;65881;52.438;16.744;2023-05-07T11:01:59;12.10;63.30
76936;DHT22;65881;52.438;16.744;2023-05-07T11:04:28;12.20;63.30
76936;DHT22;65881;52.438;16.744;2023-05-07T11:07:25;12.30;63.90
76936;DHT22;65881;52.438;16.744;2023-05-07T11:15:02;11.80;62.10
76936;DHT22;65881;52.438;16.744;2023-05-07T11:17:31;11.70;65.20
76936;DHT22;65881;52.438;16.744;2023-05-07T11:20:00;12.00;63.60
76936;DHT22;65881;52.438;16.744;2023-05-07T11:25:02;12.30;65.90
76936;DHT22;65881;52.438;16.744;2023-05-07T11:27:35;12.50;64.50
76936;DHT22;65881;52.438;16.744;2023-05-07T11:30:07;12.70;63.30
76936;DHT22;65881;52.438;16.744;2023-05-07T11:32:32;12.50;60.90
76936;DHT22;65881;52.438;16.744;2023-05-07T11:35:00;12.50;62.20
76936;DHT22;65881;52.438;16.744;2023-05-07T11:37:28;11.90;63.10
76936;DHT22;65881;52.438;16.744;2023-05-07T11:40:07;11.70;64.60
76936;DHT22;65881;52.438;16.744;2023-05-07T11:42:37;11.70;66.00
76936;DHT22;65881;52.438;16.744;2023-05-07T11:45:07;11.90;65.10
76936;DHT22;65881;52.438;16.744;2023-05-07T11:47:34;12.00;66.00
76936;DHT22;65881;52.438;16.744;2023-05-07T11:50:07;12.30;62.60
76936;DHT22;65881;52.438;16.744;2023-05-07T11:52:34;12.50;61.80
76936;DHT22;65881;52.438;16.744;2023-05-07T11:55:00;12.30;60.90
76936;DHT22;65881;52.438;16.744;2023-05-07T11:57:27;12.50;60.30
76936;DHT22;65881;52.438;16.744;2023-05-07T11:59:57;12.50;60.50
76936;DHT22;65881;52.438;16.744;2023-05-07T12:02:24;12.70;58.50
76936;DHT22;65881;52.438;16.744;2023-05-07T12:04:54;12.90;58.10
76936;DHT22;65881;52.438;16.744;2023-05-07T12:07:20;13.10;58.60
76936;DHT22;65881;52.438;16.744;2023-05-07T12:09:46;13.10;58.60
76936;DHT22;65881;52.438;16.744;2023-05-07T12:12:13;13.00;57.60
76936;DHT22;65881;52.438;16.744;2023-05-07T12:14:44;13.00;59.40
76936;DHT22;65881;52.438;16.744;2023-05-07T12:17:11;12.80;58.30
76936;DHT22;65881;52.438;16.744;2023-05-07T12:19:39;12.50;59.20
76936;DHT22;65881;52.438;16.744;2023-05-07T12:22:20;12.70;60.00
76936;DHT22;65881;52.438;16.744;2023-05-07T12:24:47;12.90;59.80
76936;DHT22;65881;52.438;16.744;2023-05-07T12:27:16;13.00;57.30
76936;DHT22;65881;52.438;16.744;2023-05-07T12:29:47;13.00;56.20
76936;DHT22;65881;52.438;16.744;2023-05-07T12:32:20;13.10;56.80
76936;DHT22;65881;52.438;16.744;2023-05-07T12:34:46;13.30;57.00
76936;DHT22;65881;52.438;16.744;2023-05-07T12:37:13;13.20;55.30
76936;DHT22;65881;52.438;16.744;2023-05-07T12:39:44;13.10;55.80
76936;DHT22;65881;52.438;16.744;2023-05-07T12:42:19;13.10;56.80
76936;DHT22;65881;52.438;16.744;2023-05-07T12:44:48;13.40;57.80
76936;DHT22;65881;52.438;16.744;2023-05-07T12:47:15;13.90;56.90
76936;DHT22;65881;52.438;16.744;2023-05-07T12:49:47;14.00;53.10
76936;DHT22;65881;52.438;16.744;2023-05-07T12:52:12;13.60;53.70
76936;DHT22;65881;52.438;16.744;2023-05-07T12:54:38;13.50;54.70
76936;DHT22;65881;52.438;16.744;2023-05-07T12:57:07;13.50;55.60
76936;DHT22;65881;52.438;16.744;2023-05-07T12:59:37;13.30;55.00
76936;DHT22;65881;52.438;16.744;2023-05-07T13:02:07;13.30;56.20
76936;DHT22;65881;52.438;16.744;2023-05-07T13:04:35;13.10;55.90
76936;DHT22;65881;52.438;16.744;2023-05-07T13:07:02;13.30;57.10
76936;DHT22;65881;52.438;16.744;2023-05-07T13:09:31;13.60;55.70
76936;DHT22;65881;52.438;16.744;2023-05-07T13:11:58;13.70;55.00
76936;DHT22;65881;52.438;16.744;2023-05-07T13:14:26;13.50;56.10
76936;DHT22;65881;52.438;16.744;2023-05-07T13:16:58;13.30;55.70
76936;DHT22;65881;52.438;16.744;2023-05-07T13:19:24;13.10;57.90
76936;DHT22;65881;52.438;16.744;2023-05-07T13:21:49;12.80;57.10
76936;DHT22;65881;52.438;16.744;2023-05-07T13:24:15;13.00;57.20
76936;DHT22;65881;52.438;16.744;2023-05-07T13:26:41;13.10;56.90
76936;DHT22;65881;52.438;16.744;2023-05-07T13:29:07;13.30;56.30
76936;DHT22;65881;52.438;16.744;2023-05-07T13:31:32;13.50;55.80
76936;DHT22;65881;52.438;16.744;2023-05-07T13:33:59;13.30;55.20
76936;DHT22;65881;52.438;16.744;2023-05-07T13:36:24;13.30;55.40
76936;DHT22;65881;52.438;16.744;2023-05-07T13:38:50;13.10;56.20
76936;DHT22;65881;52.438;16.744;2023-05-07T13:41:17;12.90;55.70
76936;DHT22;65881;52.438;16.744;2023-05-07T13:43:42;12.80;57.80
76936;DHT22;65881;52.438;16.744;2023-05-07T13:46:08;12.90;59.10
76936;DHT22;65881;52.438;16.744;2023-05-07T13:48:34;13.00;61.40
76936;DHT22;65881;52.438;16.744;2023-05-07T13:51:00;13.10;56.40
76936;DHT22;65881;52.438;16.744;2023-05-07T13:53:28;13.00;58.70
76936;DHT22;65881;52.438;16.744;2023-05-07T13:55:54;13.00;58.80
76936;DHT22;65881;52.438;16.744;2023-05-07T13:58:20;12.80;55.80
76936;DHT22;65881;52.438;16.744;2023-05-07T14:00:52;12.80;57.90
76936;DHT22;65881;52.438;16.744;2023-05-07T14:03:18;12.50;59.30
76936;DHT22;65881;52.438;16.744;2023-05-07T14:05:45;12.50;60.00
76936;DHT22;65881;52.438;16.744;2023-05-07T14:08:10;12.40;60.90
76936;DHT22;65881;52.438;16.744;2023-05-07T14:10:39;12.50;60.30
76936;DHT22;65881;52.438;16.744;2023-05-07T14:13:05;13.00;58.90
76936;DHT22;65881;52.438;16.744;2023-05-07T14:15:34;13.50;57.80
76936;DHT22;65881;52.438;16.744;2023-05-07T14:18:00;14.00;52.90
76936;DHT22;65881;52.438;16.744;2023-05-07T14:20:25;14.20;53.70
76936;DHT22;65881;52.438;16.744;2023-05-07T14:22:51;14.50;54.00
76936;DHT22;65881;52.438;16.744;2023-05-07T14:25:17;14.30;53.80
76936;DHT22;65881;52.438;16.744;2023-05-07T14:27:43;14.40;51.80
76936;DHT22;65881;52.438;16.744;2023-05-07T14:30:09;14.40;50.40
76936;DHT22;65881;52.438;16.744;2023-05-07T14:32:34;14.30;49.80
76936;DHT22;65881;52.438;16.744;2023-05-07T14:35:00;14.10;52.90
76936;DHT22;65881;52.438;16.744;2023-05-07T14:37:26;13.90;53.10
76936;DHT22;65881;52.438;16.744;2023-05-07T14:39:51;13.60;52.60
76936;DHT22;65881;52.438;16.744;2023-05-07T14:42:18;13.60;52.10
76936;DHT22;65881;52.438;16.744;2023-05-07T14:44:43;13.50;53.00
76936;DHT22;65881;52.438;16.744;2023-05-07T14:47:10;13.60;54.60
76936;DHT22;65881;52.438;16.744;2023-05-07T14:49:36;13.50;54.60
76936;DHT22;65881;52.438;16.744;2023-05-07T14:52:02;13.50;53.20
76936;DHT22;65881;52.438;16.744;2023-05-07T14:54:36;13.50;51.80
76936;DHT22;65881;52.438;16.744;2023-05-07T14:57:04;13.50;52.70
76936;DHT22;65881;52.438;16.744;2023-05-07T14:59:31;13.30;52.80
76936;DHT22;65881;52.438;16.744;2023-05-07T15:01:57;13.30;53.40
76936;DHT22;65881;52.438;16.744;2023-05-07T15:04:24;13.30;52.70
76936;DHT22;65881;52.438;16.744;2023-05-07T15:06:54;13.60;53.30
76936;DHT22;65881;52.438;16.744;2023-05-07T15:09:21;13.50;54.70
76936;DHT22;65881;52.438;16.744;2023-05-07T15:11:47;13.30;52.70
76936;DHT22;65881;52.438;16.744;2023-05-07T15:14:13;13.10;54.20
76936;DHT22;65881;52.438;16.744;2023-05-07T15:16:38;13.10;54.50
76936;DHT22;65881;52.438;16.744;2023-05-07T15:19:04;13.10;55.90
76936;DHT22;65881;52.438;16.744;2023-05-07T15:21:33;13.10;54.60
76936;DHT22;65881;52.438;16.744;2023-05-07T15:24:00;13.10;55.30
76936;DHT22;65881;52.438;16.744;2023-05-07T15:26:26;13.00;54.00
76936;DHT22;65881;52.438;16.744;2023-05-07T15:28:52;12.90;54.40
76936;DHT22;65881;52.438;16.744;2023-05-07T15:31:18;12.90;54.70
76936;DHT22;65881;52.438;16.744;2023-05-07T15:33:43;12.90;54.90
76936;DHT22;65881;52.438;16.744;2023-05-07T15:36:10;12.70;54.00
76936;DHT22;65881;52.438;16.744;2023-05-07T15:38:36;12.50;54.00
76936;DHT22;65881;52.438;16.744;2023-05-07T15:41:08;12.80;54.40